sensor_id;sensor_type;location;lat;lon;timestamp;P1;durP1;ratioP1;P2;durP2;ratioP2
19384;SDS011;9828;54.122;17.974;2022-09-09T00:19:08;5.30;;;2.03;;
19384;SDS011;9828;54.122;17.974;2022-09-09T00:24:14;5.45;;;2.13;;
19384;SDS011;9828;54.122;17.974;2022-09-09T00:30:41;9.70;;;2.10;;
19384;SDS011;9828;54.122;17.974;2022-09-09T00:35:49;5.38;;;2.10;;
19384;SDS011;9828;54.122;17.974;2022-09-09T00:46:54;9.60;;;2.10;;
19384;SDS011;9828;54.122;17.974;2022-09-09T00:58:34;5.07;;;2.13;;
19384;SDS011;9828;54.122;17.974;2022-09-09T01:03:56;3.33;;;2.20;;
19384;SDS011;9828;54.122;17.974;2022-09-09T01:09:26;3.47;;;2.22;;
19384;SDS011;9828;54.122;17.974;2022-09-09T01:15:03;3.15;;;1.83;;
19384;SDS011;9828;54.122;17.974;2022-09-09T01:20:46;4.80;;;1.80;;
19384;SDS011;9828;54.122;17.974;2022-09-09T01:31:59;3.90;;;2.17;;
19384;SDS011;9828;54.122;17.974;2022-09-09T01:37:40;5.57;;;2.42;;
19384;SDS011;9828;54.122;17.974;2022-09-09T01:43:02;7.90;;;3.00;;
19384;SDS011;9828;54.122;17.974;2022-09-09T01:48:25;5.10;;;3.13;;
19384;SDS011;9828;54.122;17.974;2022-09-09T01:53:55;11.02;;;5.75;;
19384;SDS011;9828;54.122;17.974;2022-09-09T02:05:17;9.85;;;4.28;;
19384;SDS011;9828;54.122;17.974;2022-09-09T02:11:16;5.53;;;3.50;;
19384;SDS011;9828;54.122;17.974;2022-09-09T02:16:50;6.43;;;4.13;;
19384;SDS011;9828;54.122;17.974;2022-09-09T02:22:30;5.82;;;3.53;;
19384;SDS011;9828;54.122;17.974;2022-09-09T02:27:55;8.60;;;3.88;;
19384;SDS011;9828;54.122;17.974;2022-09-09T02:33:24;4.40;;;3.50;;
19384;SDS011;9828;54.122;17.974;2022-09-09T02:38:48;5.93;;;3.67;;
19384;SDS011;9828;54.122;17.974;2022-09-09T02:44:14;7.15;;;3.92;;
19384;SDS011;9828;54.122;17.974;2022-09-09T02:49:57;9.52;;;3.70;;
19384;SDS011;9828;54.122;17.974;2022-09-09T03:01:05;7.55;;;3.90;;
19384;SDS011;9828;54.122;17.974;2022-09-09T03:06:26;8.82;;;4.05;;
19384;SDS011;9828;54.122;17.974;2022-09-09T03:12:00;6.20;;;3.53;;
19384;SDS011;9828;54.122;17.974;2022-09-09T03:17:23;8.57;;;4.28;;
19384;SDS011;9828;54.122;17.974;2022-09-09T03:22:48;5.80;;;3.83;;
19384;SDS011;9828;54.122;17.974;2022-09-09T03:28:09;10.20;;;4.77;;
19384;SDS011;9828;54.122;17.974;2022-09-09T03:33:32;10.63;;;4.47;;
19384;SDS011;9828;54.122;17.974;2022-09-09T03:38:57;8.10;;;4.33;;
19384;SDS011;9828;54.122;17.974;2022-09-09T03:44:22;5.87;;;3.90;;
19384;SDS011;9828;54.122;17.974;2022-09-09T03:49:44;7.33;;;3.90;;
19384;SDS011;9828;54.122;17.974;2022-09-09T03:55:06;5.22;;;3.67;;
19384;SDS011;9828;54.122;17.974;2022-09-09T04:00:29;7.87;;;4.03;;
19384;SDS011;9828;54.122;17.974;2022-09-09T04:05:51;9.68;;;4.28;;
19384;SDS011;9828;54.122;17.974;2022-09-09T04:11:15;10.70;;;4.70;;
19384;SDS011;9828;54.122;17.974;2022-09-09T04:16:39;8.35;;;3.83;;
19384;SDS011;9828;54.122;17.974;2022-09-09T04:22:05;7.57;;;4.13;;
19384;SDS011;9828;54.122;17.974;2022-09-09T04:27:26;7.80;;;4.03;;
19384;SDS011;9828;54.122;17.974;2022-09-09T04:32:47;8.02;;;4.65;;
19384;SDS011;9828;54.122;17.974;2022-09-09T04:38:08;7.03;;;4.37;;
19384;SDS011;9828;54.122;17.974;2022-09-09T04:43:30;7.07;;;4.27;;
19384;SDS011;9828;54.122;17.974;2022-09-09T04:48:54;7.07;;;4.83;;
19384;SDS011;9828;54.122;17.974;2022-09-09T04:54:20;9.20;;;5.07;;
19384;SDS011;9828;54.122;17.974;2022-09-09T04:59:43;10.90;;;4.30;;
19384;SDS011;9828;54.122;17.974;2022-09-09T05:05:05;10.33;;;5.13;;
19384;SDS011;9828;54.122;17.974;2022-09-09T05:10:28;15.87;;;5.20;;
19384;SDS011;9828;54.122;17.974;2022-09-09T05:15:51;8.00;;;4.57;;
19384;SDS011;9828;54.122;17.974;2022-09-09T05:21:15;8.30;;;5.10;;
19384;SDS011;9828;54.122;17.974;2022-09-09T05:26:37;9.77;;;5.83;;
19384;SDS011;9828;54.122;17.974;2022-09-09T05:32:00;10.23;;;6.17;;
19384;SDS011;9828;54.122;17.974;2022-09-09T05:37:21;9.23;;;5.90;;
19384;SDS011;9828;54.122;17.974;2022-09-09T05:42:44;9.20;;;5.67;;
19384;SDS011;9828;54.122;17.974;2022-09-09T05:48:05;8.63;;;4.83;;
19384;SDS011;9828;54.122;17.974;2022-09-09T05:53:28;11.45;;;4.78;;
19384;SDS011;9828;54.122;17.974;2022-09-09T05:58:55;7.18;;;4.78;;
19384;SDS011;9828;54.122;17.974;2022-09-09T06:04:17;9.70;;;4.83;;
19384;SDS011;9828;54.122;17.974;2022-09-09T06:09:39;8.97;;;4.83;;
19384;SDS011;9828;54.122;17.974;2022-09-09T06:15:00;7.70;;;4.43;;
19384;SDS011;9828;54.122;17.974;2022-09-09T06:20:22;6.33;;;4.23;;
19384;SDS011;9828;54.122;17.974;2022-09-09T06:25:44;6.87;;;4.63;;
19384;SDS011;9828;54.122;17.974;2022-09-09T06:31:06;5.03;;;4.17;;
19384;SDS011;9828;54.122;17.974;2022-09-09T06:36:31;7.70;;;5.20;;
19384;SDS011;9828;54.122;17.974;2022-09-09T06:41:54;7.03;;;3.63;;
19384;SDS011;9828;54.122;17.974;2022-09-09T06:47:41;7.87;;;4.03;;
19384;SDS011;9828;54.122;17.974;2022-09-09T06:53:02;6.97;;;5.10;;
19384;SDS011;9828;54.122;17.974;2022-09-09T06:58:24;5.30;;;3.60;;
19384;SDS011;9828;54.122;17.974;2022-09-09T07:03:48;5.13;;;3.80;;
19384;SDS011;9828;54.122;17.974;2022-09-09T07:09:15;7.53;;;3.33;;
19384;SDS011;9828;54.122;17.974;2022-09-09T07:14:39;3.78;;;2.42;;
19384;SDS011;9828;54.122;17.974;2022-09-09T07:20:02;3.07;;;2.47;;
19384;SDS011;9828;54.122;17.974;2022-09-09T07:25:25;3.83;;;2.40;;
19384;SDS011;9828;54.122;17.974;2022-09-09T07:31:01;3.65;;;2.40;;
19384;SDS011;9828;54.122;17.974;2022-09-09T07:36:25;2.10;;;1.90;;
19384;SDS011;9828;54.122;17.974;2022-09-09T07:42:00;3.97;;;2.07;;
19384;SDS011;9828;54.122;17.974;2022-09-09T07:47:22;3.70;;;2.70;;
19384;SDS011;9828;54.122;17.974;2022-09-09T07:52:45;9.68;;;3.38;;
19384;SDS011;9828;54.122;17.974;2022-09-09T07:58:07;7.68;;;4.32;;
19384;SDS011;9828;54.122;17.974;2022-09-09T08:03:28;6.30;;;3.70;;
19384;SDS011;9828;54.122;17.974;2022-09-09T08:08:50;6.47;;;3.38;;
19384;SDS011;9828;54.122;17.974;2022-09-09T08:14:13;3.10;;;1.93;;
19384;SDS011;9828;54.122;17.974;2022-09-09T08:19:35;3.47;;;2.47;;
19384;SDS011;9828;54.122;17.974;2022-09-09T08:25:02;6.63;;;4.70;;
19384;SDS011;9828;54.122;17.974;2022-09-09T08:30:29;5.32;;;3.70;;
19384;SDS011;9828;54.122;17.974;2022-09-09T08:35:50;7.55;;;2.90;;
19384;SDS011;9828;54.122;17.974;2022-09-09T08:46:54;3.20;;;2.40;;
19384;SDS011;9828;54.122;17.974;2022-09-09T08:52:30;3.55;;;2.45;;
19384;SDS011;9828;54.122;17.974;2022-09-09T08:58:01;5.47;;;3.33;;
19384;SDS011;9828;54.122;17.974;2022-09-09T09:03:36;3.70;;;2.10;;
19384;SDS011;9828;54.122;17.974;2022-09-09T09:09:11;3.20;;;2.37;;
19384;SDS011;9828;54.122;17.974;2022-09-09T09:14:42;2.22;;;2.00;;
19384;SDS011;9828;54.122;17.974;2022-09-09T09:20:11;2.88;;;2.58;;
19384;SDS011;9828;54.122;17.974;2022-09-09T09:25:38;3.50;;;2.00;;
19384;SDS011;9828;54.122;17.974;2022-09-09T09:31:06;1.98;;;1.77;;
19384;SDS011;9828;54.122;17.974;2022-09-09T09:36:55;2.20;;;1.83;;
19384;SDS011;9828;54.122;17.974;2022-09-09T09:42:22;2.38;;;2.13;;
19384;SDS011;9828;54.122;17.974;2022-09-09T09:47:57;2.67;;;2.22;;
19384;SDS011;9828;54.122;17.974;2022-09-09T09:53:29;3.45;;;2.67;;
19384;SDS011;9828;54.122;17.974;2022-09-09T09:58:52;3.00;;;2.70;;
19384;SDS011;9828;54.122;17.974;2022-09-09T10:04:22;3.70;;;2.45;;
19384;SDS011;9828;54.122;17.974;2022-09-09T10:09:52;4.78;;;2.80;;
19384;SDS011;9828;54.122;17.974;2022-09-09T11:05:46;5.80;;;4.38;;
19384;SDS011;9828;54.122;17.974;2022-09-09T11:11:17;5.50;;;4.63;;
19384;SDS011;9828;54.122;17.974;2022-09-09T11:17:01;9.48;;;6.57;;
19384;SDS011;9828;54.122;17.974;2022-09-09T11:45:40;7.53;;;6.00;;
19384;SDS011;9828;54.122;17.974;2022-09-09T11:51:07;7.05;;;5.00;;
19384;SDS011;9828;54.122;17.974;2022-09-09T11:56:42;9.40;;;6.32;;
19384;SDS011;9828;54.122;17.974;2022-09-09T12:02:12;9.35;;;6.40;;
19384;SDS011;9828;54.122;17.974;2022-09-09T12:07:47;7.13;;;5.25;;
19384;SDS011;9828;54.122;17.974;2022-09-09T12:13:18;7.85;;;5.88;;
19384;SDS011;9828;54.122;17.974;2022-09-09T12:18:45;7.30;;;6.18;;
19384;SDS011;9828;54.122;17.974;2022-09-09T12:24:15;8.63;;;6.32;;
19384;SDS011;9828;54.122;17.974;2022-09-09T12:35:30;16.88;;;11.60;;
19384;SDS011;9828;54.122;17.974;2022-09-09T12:40:56;14.57;;;9.00;;
19384;SDS011;9828;54.122;17.974;2022-09-09T12:46:52;10.80;;;6.97;;
19384;SDS011;9828;54.122;17.974;2022-09-09T12:52:09;11.93;;;8.60;;
19384;SDS011;9828;54.122;17.974;2022-09-09T12:57:39;9.77;;;6.90;;
19384;SDS011;9828;54.122;17.974;2022-09-09T13:03:02;19.77;;;15.57;;
19384;SDS011;9828;54.122;17.974;2022-09-09T13:08:36;23.25;;;18.02;;
19384;SDS011;9828;54.122;17.974;2022-09-09T13:13:58;14.00;;;10.63;;
19384;SDS011;9828;54.122;17.974;2022-09-09T13:19:20;12.63;;;9.35;;
19384;SDS011;9828;54.122;17.974;2022-09-09T13:24:42;12.25;;;9.35;;
19384;SDS011;9828;54.122;17.974;2022-09-09T13:35:45;11.55;;;8.98;;
19384;SDS011;9828;54.122;17.974;2022-09-09T13:41:08;13.27;;;9.73;;
19384;SDS011;9828;54.122;17.974;2022-09-09T13:46:33;12.88;;;10.52;;
19384;SDS011;9828;54.122;17.974;2022-09-09T13:52:05;13.70;;;10.68;;
19384;SDS011;9828;54.122;17.974;2022-09-09T13:57:30;11.77;;;10.05;;
19384;SDS011;9828;54.122;17.974;2022-09-09T14:02:51;16.25;;;11.70;;
19384;SDS011;9828;54.122;17.974;2022-09-09T14:08:23;14.10;;;12.32;;
19384;SDS011;9828;54.122;17.974;2022-09-09T14:13:47;14.23;;;11.20;;
19384;SDS011;9828;54.122;17.974;2022-09-09T14:19:10;14.52;;;10.93;;
19384;SDS011;9828;54.122;17.974;2022-09-09T14:24:32;18.42;;;14.93;;
19384;SDS011;9828;54.122;17.974;2022-09-09T14:29:54;22.80;;;16.17;;
19384;SDS011;9828;54.122;17.974;2022-09-09T14:35:16;22.92;;;16.52;;
19384;SDS011;9828;54.122;17.974;2022-09-09T14:40:39;23.20;;;15.77;;
19384;SDS011;9828;54.122;17.974;2022-09-09T14:46:12;25.88;;;17.75;;
19384;SDS011;9828;54.122;17.974;2022-09-09T14:51:34;27.77;;;17.98;;
19384;SDS011;9828;54.122;17.974;2022-09-09T14:56:56;23.98;;;16.33;;
19384;SDS011;9828;54.122;17.974;2022-09-09T15:02:18;20.42;;;15.13;;
19384;SDS011;9828;54.122;17.974;2022-09-09T15:07:39;21.10;;;15.80;;
19384;SDS011;9828;54.122;17.974;2022-09-09T15:13:00;19.80;;;15.38;;
19384;SDS011;9828;54.122;17.974;2022-09-09T15:18:22;26.27;;;18.55;;
19384;SDS011;9828;54.122;17.974;2022-09-09T15:23:43;25.63;;;18.02;;
19384;SDS011;9828;54.122;17.974;2022-09-09T15:29:04;18.27;;;14.13;;
19384;SDS011;9828;54.122;17.974;2022-09-09T15:34:25;23.10;;;15.93;;
19384;SDS011;9828;54.122;17.974;2022-09-09T15:39:47;21.55;;;16.48;;
19384;SDS011;9828;54.122;17.974;2022-09-09T15:45:09;24.40;;;18.40;;
19384;SDS011;9828;54.122;17.974;2022-09-09T15:50:31;19.70;;;16.52;;
19384;SDS011;9828;54.122;17.974;2022-09-09T15:55:54;22.98;;;18.17;;
19384;SDS011;9828;54.122;17.974;2022-09-09T16:01:16;24.75;;;17.55;;
19384;SDS011;9828;54.122;17.974;2022-09-09T16:06:37;19.02;;;15.73;;
19384;SDS011;9828;54.122;17.974;2022-09-09T16:12:00;24.88;;;18.80;;
19384;SDS011;9828;54.122;17.974;2022-09-09T16:17:23;31.65;;;24.98;;
19384;SDS011;9828;54.122;17.974;2022-09-09T16:22:44;24.27;;;17.42;;
19384;SDS011;9828;54.122;17.974;2022-09-09T16:28:06;24.90;;;19.63;;
19384;SDS011;9828;54.122;17.974;2022-09-09T16:33:27;28.48;;;20.33;;
19384;SDS011;9828;54.122;17.974;2022-09-09T16:38:56;29.80;;;21.73;;
19384;SDS011;9828;54.122;17.974;2022-09-09T16:44:18;40.05;;;25.05;;
19384;SDS011;9828;54.122;17.974;2022-09-09T16:49:40;29.67;;;20.92;;
19384;SDS011;9828;54.122;17.974;2022-09-09T16:55:01;28.38;;;18.33;;
19384;SDS011;9828;54.122;17.974;2022-09-09T17:00:23;23.27;;;17.80;;
19384;SDS011;9828;54.122;17.974;2022-09-09T17:05:44;22.00;;;16.98;;
19384;SDS011;9828;54.122;17.974;2022-09-09T17:11:12;24.83;;;18.85;;
19384;SDS011;9828;54.122;17.974;2022-09-09T17:16:38;31.40;;;22.15;;
19384;SDS011;9828;54.122;17.974;2022-09-09T17:22:02;26.60;;;20.20;;
19384;SDS011;9828;54.122;17.974;2022-09-09T17:27:35;28.73;;;20.33;;
19384;SDS011;9828;54.122;17.974;2022-09-09T17:32:56;27.83;;;19.00;;
19384;SDS011;9828;54.122;17.974;2022-09-09T17:38:17;29.60;;;19.15;;
19384;SDS011;9828;54.122;17.974;2022-09-09T17:43:39;31.00;;;20.88;;
19384;SDS011;9828;54.122;17.974;2022-09-09T17:49:02;27.40;;;19.38;;
19384;SDS011;9828;54.122;17.974;2022-09-09T17:54:25;31.73;;;22.17;;
19384;SDS011;9828;54.122;17.974;2022-09-09T17:59:46;30.33;;;21.70;;
19384;SDS011;9828;54.122;17.974;2022-09-09T18:05:07;30.38;;;22.60;;
19384;SDS011;9828;54.122;17.974;2022-09-09T18:10:29;30.35;;;22.88;;
19384;SDS011;9828;54.122;17.974;2022-09-09T18:15:51;34.00;;;25.20;;
19384;SDS011;9828;54.122;17.974;2022-09-09T18:21:13;30.33;;;22.02;;
19384;SDS011;9828;54.122;17.974;2022-09-09T18:26:35;28.63;;;20.88;;
19384;SDS011;9828;54.122;17.974;2022-09-09T18:31:57;31.77;;;22.40;;
19384;SDS011;9828;54.122;17.974;2022-09-09T18:37:19;30.75;;;21.65;;
19384;SDS011;9828;54.122;17.974;2022-09-09T18:42:40;34.15;;;22.88;;
19384;SDS011;9828;54.122;17.974;2022-09-09T18:48:02;32.72;;;23.13;;
19384;SDS011;9828;54.122;17.974;2022-09-09T18:53:25;34.70;;;23.52;;
19384;SDS011;9828;54.122;17.974;2022-09-09T18:58:50;36.80;;;22.17;;
19384;SDS011;9828;54.122;17.974;2022-09-09T19:04:13;33.60;;;21.40;;
19384;SDS011;9828;54.122;17.974;2022-09-09T19:09:34;34.03;;;22.80;;
19384;SDS011;9828;54.122;17.974;2022-09-09T19:14:56;36.15;;;23.85;;
19384;SDS011;9828;54.122;17.974;2022-09-09T19:20:17;30.67;;;21.73;;
19384;SDS011;9828;54.122;17.974;2022-09-09T19:25:43;34.20;;;21.30;;
19384;SDS011;9828;54.122;17.974;2022-09-09T19:31:05;34.80;;;21.30;;
19384;SDS011;9828;54.122;17.974;2022-09-09T19:36:28;28.38;;;21.83;;
19384;SDS011;9828;54.122;17.974;2022-09-09T19:41:51;27.58;;;19.35;;
19384;SDS011;9828;54.122;17.974;2022-09-09T19:47:12;29.67;;;19.33;;
19384;SDS011;9828;54.122;17.974;2022-09-09T19:52:34;28.95;;;19.15;;
19384;SDS011;9828;54.122;17.974;2022-09-09T19:57:55;31.10;;;18.95;;
19384;SDS011;9828;54.122;17.974;2022-09-09T20:03:17;30.98;;;18.13;;
19384;SDS011;9828;54.122;17.974;2022-09-09T20:08:39;26.80;;;18.15;;
19384;SDS011;9828;54.122;17.974;2022-09-09T20:14:01;28.52;;;19.55;;
19384;SDS011;9828;54.122;17.974;2022-09-09T20:19:23;29.90;;;19.15;;
19384;SDS011;9828;54.122;17.974;2022-09-09T20:24:44;27.83;;;17.98;;
19384;SDS011;9828;54.122;17.974;2022-09-09T20:30:06;31.48;;;22.20;;
19384;SDS011;9828;54.122;17.974;2022-09-09T20:35:28;29.17;;;21.58;;
19384;SDS011;9828;54.122;17.974;2022-09-09T20:40:50;25.15;;;18.15;;
19384;SDS011;9828;54.122;17.974;2022-09-09T20:46:12;27.58;;;19.55;;
19384;SDS011;9828;54.122;17.974;2022-09-09T20:51:34;22.40;;;16.65;;
19384;SDS011;9828;54.122;17.974;2022-09-09T20:56:56;26.42;;;17.63;;
19384;SDS011;9828;54.122;17.974;2022-09-09T21:02:19;27.60;;;17.83;;
19384;SDS011;9828;54.122;17.974;2022-09-09T21:07:41;25.95;;;19.27;;
19384;SDS011;9828;54.122;17.974;2022-09-09T21:13:03;28.92;;;20.10;;
19384;SDS011;9828;54.122;17.974;2022-09-09T21:18:25;30.02;;;20.02;;
19384;SDS011;9828;54.122;17.974;2022-09-09T21:23:49;30.80;;;21.73;;
19384;SDS011;9828;54.122;17.974;2022-09-09T21:29:15;30.33;;;22.42;;
19384;SDS011;9828;54.122;17.974;2022-09-09T21:34:36;28.65;;;21.10;;
19384;SDS011;9828;54.122;17.974;2022-09-09T21:39:57;29.05;;;19.60;;
19384;SDS011;9828;54.122;17.974;2022-09-09T21:45:18;26.67;;;18.30;;
19384;SDS011;9828;54.122;17.974;2022-09-09T21:50:43;24.13;;;16.40;;
19384;SDS011;9828;54.122;17.974;2022-09-09T21:56:11;20.02;;;16.05;;
19384;SDS011;9828;54.122;17.974;2022-09-09T22:01:35;21.40;;;16.50;;
19384;SDS011;9828;54.122;17.974;2022-09-09T22:06:57;20.48;;;15.27;;
19384;SDS011;9828;54.122;17.974;2022-09-09T22:12:18;21.48;;;13.75;;
19384;SDS011;9828;54.122;17.974;2022-09-09T22:17:40;12.45;;;10.13;;
19384;SDS011;9828;54.122;17.974;2022-09-09T22:23:02;13.25;;;10.90;;
19384;SDS011;9828;54.122;17.974;2022-09-09T22:28:23;16.30;;;12.95;;
19384;SDS011;9828;54.122;17.974;2022-09-09T22:33:45;27.70;;;21.08;;
19384;SDS011;9828;54.122;17.974;2022-09-09T22:39:06;29.48;;;20.70;;
19384;SDS011;9828;54.122;17.974;2022-09-09T22:44:27;37.03;;;23.20;;
19384;SDS011;9828;54.122;17.974;2022-09-09T22:49:49;32.55;;;21.15;;
19384;SDS011;9828;54.122;17.974;2022-09-09T22:55:11;32.73;;;21.20;;
19384;SDS011;9828;54.122;17.974;2022-09-09T23:00:32;37.60;;;24.47;;
19384;SDS011;9828;54.122;17.974;2022-09-09T23:05:54;35.17;;;23.88;;
19384;SDS011;9828;54.122;17.974;2022-09-09T23:11:36;34.83;;;23.83;;
19384;SDS011;9828;54.122;17.974;2022-09-09T23:17:16;35.53;;;24.08;;
19384;SDS011;9828;54.122;17.974;2022-09-09T23:22:57;31.33;;;23.53;;
19384;SDS011;9828;54.122;17.974;2022-09-09T23:28:37;30.57;;;22.07;;
19384;SDS011;9828;54.122;17.974;2022-09-09T23:34:20;32.80;;;24.05;;
19384;SDS011;9828;54.122;17.974;2022-09-09T23:40:00;30.25;;;21.55;;
19384;SDS011;9828;54.122;17.974;2022-09-09T23:45:22;33.03;;;22.33;;
19384;SDS011;9828;54.122;17.974;2022-09-09T23:50:43;29.40;;;20.90;;
19384;SDS011;9828;54.122;17.974;2022-09-09T23:56:05;22.93;;;17.30;;
